Time;durP1;ratioP1;P1;durP2;ratioP2;P2;SDS_P1;SDS_P2;PMS_P1;PMS_P2;Temp;Humidity;BMP_temperature;BMP_pressure;BME280_temperature;BME280_humidity;BME280_pressure;Samples;Min_cycle;Max_cycle;Signal;HPM_P1;HPM_P2
2023/05/10 00:02:22;;;;;;;;;;;15.80;60.00;;;;;;5084859;28;19919;-68
2023/05/10 00:04:48;;;;;;;;;;;15.80;60.00;;;;;;5067098;28;19916;-69
2023/05/10 00:07:13;;;;;;;;;;;15.70;60.20;;;;;;5066903;28;20349;-68
2023/05/10 00:09:39;;;;;;;;;;;15.70;60.40;;;;;;5087195;28;19909;-69
2023/05/10 00:12:05;;;;;;;;;;;15.70;60.60;;;;;;5080985;28;19923;-69
2023/05/10 00:14:31;;;;;;;;;;;15.60;61.00;;;;;;5084720;28;20014;-68
2023/05/10 00:16:59;;;;;;;;;;;15.60;61.00;;;;;;5060608;28;20331;-68
2023/05/10 00:19:25;;;;;;;;;;;15.60;61.10;;;;;;5064553;28;19908;-68
2023/05/10 00:21:51;;;;;;;;;;;15.60;61.40;;;;;;5083773;28;20318;-68
2023/05/10 00:24:16;;;;;;;;;;;15.60;61.30;;;;;;5086160;28;19942;-69
2023/05/10 00:26:42;;;;;;;;;;;15.60;61.40;;;;;;5081159;28;19912;-68
2023/05/10 00:29:07;;;;;;;;;;;15.60;61.30;;;;;;5070093;28;20371;-68
2023/05/10 00:31:33;;;;;;;;;;;15.60;61.30;;;;;;5081245;28;19919;-68
2023/05/10 00:33:58;;;;;;;;;;;15.60;61.70;;;;;;5084285;28;19916;-69
2023/05/10 00:36:24;;;;;;;;;;;15.50;61.70;;;;;;5083968;28;19927;-69
2023/05/10 00:38:50;;;;;;;;;;;15.50;61.90;;;;;;5082270;28;20440;-69
2023/05/10 00:41:15;;;;;;;;;;;15.50;62.20;;;;;;5084470;28;20284;-68
2023/05/10 00:43:41;;;;;;;;;;;15.40;62.50;;;;;;5078052;28;19943;-68
2023/05/10 00:46:07;;;;;;;;;;;15.40;62.50;;;;;;5064943;28;19959;-67
2023/05/10 00:48:33;;;;;;;;;;;15.40;62.90;;;;;;5082499;28;19917;-67
2023/05/10 00:50:58;;;;;;;;;;;15.40;63.00;;;;;;5065779;28;19944;-67
2023/05/10 00:53:24;;;;;;;;;;;15.40;63.10;;;;;;5067648;28;19916;-70
2023/05/10 00:55:50;;;;;;;;;;;15.40;63.10;;;;;;5062558;28;19927;-70
2023/05/10 00:58:16;;;;;;;;;;;15.30;63.40;;;;;;5083924;28;19968;-69
2023/05/10 01:00:43;;;;;;;;;;;15.30;63.70;;;;;;5083275;28;19916;-69
2023/05/10 01:03:09;;;;;;;;;;;15.20;63.70;;;;;;5082180;28;19912;-69
2023/05/10 01:05:35;;;;;;;;;;;15.20;63.80;;;;;;5072702;28;20276;-69
2023/05/10 01:08:01;;;;;;;;;;;15.20;63.90;;;;;;5084255;28;19919;-68
2023/05/10 01:10:26;;;;;;;;;;;15.20;64.10;;;;;;5066470;28;20621;-69
2023/05/10 01:12:52;;;;;;;;;;;15.20;64.40;;;;;;5083679;28;19935;-69
2023/05/10 01:15:18;;;;;;;;;;;15.10;64.30;;;;;;5080752;28;19924;-69
2023/05/10 01:17:45;;;;;;;;;;;15.10;64.50;;;;;;5083628;28;20258;-69
2023/05/10 01:20:11;;;;;;;;;;;15.10;64.50;;;;;;5060539;28;19970;-69
2023/05/10 01:22:55;;;;;;;;;;;15.10;65.40;;;;;;5080571;28;19916;-71
2023/05/10 01:25:37;;;;;;;;;;;15.00;64.90;;;;;;5079789;28;19951;-69
2023/05/10 01:28:03;;;;;;;;;;;15.00;65.10;;;;;;5069746;28;20018;-69
2023/05/10 01:30:54;;;;;;;;;;;15.00;65.20;;;;;;5085988;28;19995;-69
2023/05/10 01:33:26;;;;;;;;;;;14.90;65.40;;;;;;5085685;28;19962;-69
2023/05/10 01:35:53;;;;;;;;;;;14.90;65.50;;;;;;5082942;28;19922;-70
2023/05/10 01:38:18;;;;;;;;;;;14.90;65.70;;;;;;5064320;28;20654;-69
2023/05/10 01:40:50;;;;;;;;;;;14.90;65.70;;;;;;5088694;28;19912;-69
2023/05/10 01:43:19;;;;;;;;;;;14.90;65.60;;;;;;5086344;28;19943;-69
2023/05/10 01:45:57;;;;;;;;;;;14.80;65.90;;;;;;5085392;28;19912;-69
2023/05/10 01:48:24;;;;;;;;;;;14.90;66.00;;;;;;5068239;28;19935;-69
2023/05/10 01:50:50;;;;;;;;;;;14.80;66.10;;;;;;5082405;28;20027;-69
2023/05/10 01:53:18;;;;;;;;;;;14.90;66.30;;;;;;5083917;28;19916;-69
2023/05/10 01:55:47;;;;;;;;;;;14.80;66.20;;;;;;5079159;28;19912;-69
2023/05/10 01:58:15;;;;;;;;;;;14.80;66.30;;;;;;5087413;28;20394;-69
2023/05/10 02:00:42;;;;;;;;;;;14.80;66.20;;;;;;5066890;28;20489;-70
2023/05/10 02:03:09;;;;;;;;;;;14.80;66.40;;;;;;5080917;28;19916;-69
2023/05/10 02:05:35;;;;;;;;;;;14.70;66.50;;;;;;5059212;28;19926;-71
2023/05/10 02:08:02;;;;;;;;;;;14.70;66.80;;;;;;5086429;28;19917;-69
2023/05/10 02:10:28;;;;;;;;;;;14.70;66.90;;;;;;5064378;28;20666;-69
2023/05/10 02:12:55;;;;;;;;;;;14.70;67.10;;;;;;5084298;28;19916;-69
2023/05/10 02:15:22;;;;;;;;;;;14.70;67.10;;;;;;5085129;28;19942;-69
2023/05/10 02:17:48;;;;;;;;;;;14.60;67.20;;;;;;5083924;28;19985;-68
2023/05/10 02:20:14;;;;;;;;;;;14.60;67.40;;;;;;5085944;28;19951;-69
2023/05/10 02:22:41;;;;;;;;;;;14.60;67.50;;;;;;5085186;28;19959;-68
2023/05/10 02:25:08;;;;;;;;;;;14.50;67.50;;;;;;5078881;28;19924;-69
2023/05/10 02:27:34;;;;;;;;;;;14.50;67.70;;;;;;5082905;28;20002;-69
2023/05/10 02:30:00;;;;;;;;;;;14.50;68.10;;;;;;5088889;28;20341;-69
2023/05/10 02:32:26;;;;;;;;;;;14.50;67.90;;;;;;5085087;28;19916;-69
2023/05/10 02:34:52;;;;;;;;;;;14.50;67.90;;;;;;5086897;28;20000;-69
2023/05/10 02:37:19;;;;;;;;;;;14.50;68.10;;;;;;5085875;28;19959;-68
2023/05/10 02:39:45;;;;;;;;;;;14.50;68.30;;;;;;5070544;28;19977;-69
2023/05/10 02:42:13;;;;;;;;;;;14.40;68.40;;;;;;5084599;28;19912;-68
2023/05/10 02:44:41;;;;;;;;;;;14.40;68.40;;;;;;5082995;28;19999;-68
2023/05/10 02:47:06;;;;;;;;;;;14.40;68.70;;;;;;5086404;28;19973;-69
2023/05/10 02:49:32;;;;;;;;;;;14.40;68.70;;;;;;5088349;28;19912;-69
2023/05/10 02:52:00;;;;;;;;;;;14.40;68.70;;;;;;5083239;28;20367;-69
2023/05/10 02:54:29;;;;;;;;;;;14.40;68.60;;;;;;5068387;28;19916;-69
2023/05/10 02:56:57;;;;;;;;;;;14.40;68.80;;;;;;5065710;28;19973;-69
2023/05/10 02:59:22;;;;;;;;;;;14.40;69.00;;;;;;5087147;28;19916;-69
2023/05/10 03:01:48;;;;;;;;;;;14.40;69.00;;;;;;5076506;28;20355;-69
2023/05/10 03:04:13;;;;;;;;;;;14.30;69.10;;;;;;5077568;28;19924;-68
2023/05/10 03:06:39;;;;;;;;;;;14.30;69.30;;;;;;5081369;28;19919;-69
2023/05/10 03:09:05;;;;;;;;;;;14.30;69.40;;;;;;5079292;28;19923;-69
2023/05/10 03:11:50;;;;;;;;;;;14.30;69.20;;;;;;5077645;28;20387;-69
2023/05/10 03:14:22;;;;;;;;;;;14.30;69.40;;;;;;5067805;28;19940;-68
2023/05/10 03:16:56;;;;;;;;;;;14.30;70.00;;;;;;5082537;28;19920;-68
2023/05/10 03:19:34;;;;;;;;;;;14.30;70.00;;;;;;5082924;28;20727;-68
2023/05/10 03:22:04;;;;;;;;;;;14.20;70.20;;;;;;5081020;28;20406;-69
2023/05/10 03:24:29;;;;;;;;;;;14.20;70.20;;;;;;5082139;28;19916;-70
2023/05/10 03:26:56;;;;;;;;;;;14.20;70.50;;;;;;5066154;28;20428;-69
2023/05/10 03:29:22;;;;;;;;;;;14.20;70.60;;;;;;5083880;28;19912;-69
2023/05/10 03:31:48;;;;;;;;;;;14.20;70.80;;;;;;5078804;28;19920;-69
2023/05/10 03:34:13;;;;;;;;;;;14.20;70.90;;;;;;5078589;28;19924;-69
2023/05/10 03:36:39;;;;;;;;;;;14.10;71.00;;;;;;5087049;28;20006;-69
2023/05/10 03:39:05;;;;;;;;;;;14.10;71.10;;;;;;5076936;28;19916;-69
2023/05/10 03:41:30;;;;;;;;;;;14.20;71.10;;;;;;5082894;28;19916;-70
2023/05/10 03:43:56;;;;;;;;;;;14.20;70.90;;;;;;5085059;28;19928;-70
2023/05/10 03:46:21;;;;;;;;;;;14.10;71.50;;;;;;5084046;28;20303;-69
2023/05/10 03:48:47;;;;;;;;;;;14.10;71.60;;;;;;5078368;28;19965;-69
2023/05/10 03:51:12;;;;;;;;;;;14.10;71.70;;;;;;5061439;28;19916;-69
2023/05/10 03:53:38;;;;;;;;;;;14.10;71.50;;;;;;5064798;28;19916;-66
2023/05/10 03:56:03;;;;;;;;;;;14.10;71.90;;;;;;5077826;28;20018;-69
2023/05/10 03:58:29;;;;;;;;;;;14.10;72.00;;;;;;5077768;28;20396;-72
2023/05/10 04:00:55;;;;;;;;;;;14.10;72.30;;;;;;5088933;28;19912;-69
2023/05/10 04:03:20;;;;;;;;;;;14.10;72.10;;;;;;5082703;28;19924;-68
2023/05/10 04:05:46;;;;;;;;;;;14.00;72.60;;;;;;5084808;28;19927;-67
2023/05/10 04:08:11;;;;;;;;;;;14.00;72.90;;;;;;5082537;28;20435;-69
2023/05/10 04:10:37;;;;;;;;;;;14.10;72.90;;;;;;5083549;28;19916;-68
2023/05/10 04:13:02;;;;;;;;;;;14.10;72.60;;;;;;5066839;28;20513;-68
2023/05/10 04:15:28;;;;;;;;;;;14.10;72.80;;;;;;5082974;28;20752;-68
2023/05/10 04:17:54;;;;;;;;;;;14.10;73.00;;;;;;5084764;28;19926;-67
2023/05/10 04:20:19;;;;;;;;;;;14.00;73.10;;;;;;5066630;28;19931;-68
2023/05/10 04:22:45;;;;;;;;;;;14.00;73.30;;;;;;5063154;28;19926;-69
2023/05/10 04:25:11;;;;;;;;;;;14.00;73.40;;;;;;5084132;28;19916;-68
2023/05/10 04:27:36;;;;;;;;;;;14.00;73.60;;;;;;5084021;28;20010;-68
2023/05/10 04:30:02;;;;;;;;;;;14.00;73.70;;;;;;5080479;28;20315;-69
2023/05/10 04:32:29;;;;;;;;;;;14.00;74.10;;;;;;5081743;28;19965;-69
2023/05/10 04:34:54;;;;;;;;;;;14.00;74.30;;;;;;5079378;28;19923;-68
2023/05/10 04:37:21;;;;;;;;;;;14.00;74.50;;;;;;5064308;28;19920;-68
2023/05/10 04:39:47;;;;;;;;;;;14.00;74.50;;;;;;5081311;28;20428;-69
2023/05/10 04:42:14;;;;;;;;;;;14.00;74.80;;;;;;5078522;28;19917;-69
2023/05/10 04:44:40;;;;;;;;;;;14.00;74.70;;;;;;5083918;28;19921;-68
2023/05/10 04:47:06;;;;;;;;;;;14.10;75.10;;;;;;5080924;28;20027;-71
2023/05/10 04:49:32;;;;;;;;;;;14.00;75.10;;;;;;5062414;28;19916;-68
2023/05/10 04:51:57;;;;;;;;;;;14.00;75.90;;;;;;5043646;28;19912;-68
2023/05/10 04:54:23;;;;;;;;;;;14.00;75.60;;;;;;5079649;28;20003;-69
2023/05/10 04:56:49;;;;;;;;;;;14.00;76.00;;;;;;5056079;28;19966;-69
2023/05/10 04:59:14;;;;;;;;;;;14.00;75.60;;;;;;5075000;28;20484;-68
2023/05/10 05:01:40;;;;;;;;;;;14.00;76.10;;;;;;5068085;28;19963;-70
2023/05/10 05:04:06;;;;;;;;;;;14.10;76.20;;;;;;5064143;28;19920;-68
2023/05/10 05:06:32;;;;;;;;;;;14.10;76.60;;;;;;5076426;28;20536;-68
2023/05/10 05:08:57;;;;;;;;;;;14.10;76.50;;;;;;5058878;28;19921;-68
2023/05/10 05:11:23;;;;;;;;;;;14.20;76.60;;;;;;5070633;28;19987;-69
2023/05/10 05:13:49;;;;;;;;;;;14.20;76.70;;;;;;5082015;28;20005;-68
2023/05/10 05:16:14;;;;;;;;;;;14.20;76.50;;;;;;5085287;28;19912;-70
2023/05/10 05:18:40;;;;;;;;;;;14.20;76.20;;;;;;5082201;28;19912;-68
2023/05/10 05:21:19;;;;;;;;;;;14.30;77.00;;;;;;5063504;28;19927;-68
2023/05/10 05:23:45;;;;;;;;;;;14.20;77.20;;;;;;5083348;28;19916;-67
2023/05/10 05:26:10;;;;;;;;;;;14.30;77.00;;;;;;5081563;28;19923;-69
2023/05/10 05:28:37;;;;;;;;;;;14.40;77.00;;;;;;5068559;28;19924;-68
2023/05/10 05:31:07;;;;;;;;;;;14.40;77.10;;;;;;5071598;28;19920;-68
2023/05/10 05:33:33;;;;;;;;;;;14.40;77.40;;;;;;5067359;28;19918;-68
2023/05/10 05:36:06;;;;;;;;;;;14.40;77.50;;;;;;5059373;28;19920;-68
2023/05/10 05:38:32;;;;;;;;;;;14.40;77.30;;;;;;5063628;28;20076;-70
2023/05/10 05:40:57;;;;;;;;;;;14.40;76.80;;;;;;5080386;28;20053;-70
2023/05/10 05:43:23;;;;;;;;;;;14.40;77.80;;;;;;5080798;28;20379;-68
2023/05/10 05:45:49;;;;;;;;;;;14.50;77.70;;;;;;5074399;28;20599;-71
2023/05/10 05:48:14;;;;;;;;;;;14.50;77.80;;;;;;5066584;28;19915;-68
2023/05/10 05:50:40;;;;;;;;;;;14.60;77.90;;;;;;5082082;28;19957;-74
2023/05/10 05:53:06;;;;;;;;;;;14.70;78.40;;;;;;5063027;28;19939;-75
2023/05/10 05:55:31;;;;;;;;;;;14.70;77.80;;;;;;5082172;28;19912;-70
2023/05/10 05:57:57;;;;;;;;;;;14.80;77.50;;;;;;5060892;28;19923;-73
2023/05/10 06:00:23;;;;;;;;;;;14.80;77.20;;;;;;5061151;28;19928;-74
2023/05/10 06:02:48;;;;;;;;;;;14.90;77.10;;;;;;5087021;28;19920;-74
2023/05/10 06:05:14;;;;;;;;;;;15.00;77.00;;;;;;5065258;28;19916;-70
2023/05/10 06:07:42;;;;;;;;;;;15.00;77.00;;;;;;5081600;28;19922;-69
2023/05/10 06:10:07;;;;;;;;;;;15.10;76.50;;;;;;5068932;28;20341;-68
2023/05/10 06:12:33;;;;;;;;;;;15.00;76.00;;;;;;5087903;28;19938;-68
2023/05/10 06:14:59;;;;;;;;;;;15.00;76.80;;;;;;5064668;28;19916;-70
2023/05/10 06:17:24;;;;;;;;;;;15.20;76.40;;;;;;5067109;28;20012;-70
2023/05/10 06:19:50;;;;;;;;;;;15.20;76.10;;;;;;5068246;28;20380;-68
2023/05/10 06:22:16;;;;;;;;;;;15.20;76.70;;;;;;5087961;28;19935;-68
2023/05/10 06:24:41;;;;;;;;;;;15.20;76.80;;;;;;5084355;28;20379;-68
2023/05/10 06:27:07;;;;;;;;;;;15.30;76.90;;;;;;5083356;28;20011;-68
2023/05/10 06:29:32;;;;;;;;;;;15.30;76.60;;;;;;5049498;28;19916;-70
2023/05/10 06:31:58;;;;;;;;;;;15.20;76.70;;;;;;5068064;28;20089;-70
2023/05/10 06:34:24;;;;;;;;;;;15.40;77.10;;;;;;5064765;28;19920;-69
2023/05/10 06:36:50;;;;;;;;;;;15.40;77.50;;;;;;5060678;28;20055;-71
2023/05/10 06:39:15;;;;;;;;;;;15.40;77.00;;;;;;5048484;28;19926;-68
2023/05/10 06:41:41;;;;;;;;;;;15.40;76.70;;;;;;5067687;28;19950;-69
2023/05/10 06:44:08;;;;;;;;;;;15.40;77.20;;;;;;5083792;28;20402;-70
2023/05/10 06:46:33;;;;;;;;;;;15.50;77.70;;;;;;5064623;28;19916;-69
2023/05/10 06:48:59;;;;;;;;;;;15.50;77.40;;;;;;5083185;28;19916;-70
2023/05/10 06:51:25;;;;;;;;;;;15.60;77.80;;;;;;5081498;28;20360;-69
2023/05/10 06:53:51;;;;;;;;;;;15.70;77.70;;;;;;5075278;28;20358;-73
2023/05/10 06:56:17;;;;;;;;;;;15.70;77.70;;;;;;5083105;28;19912;-69
2023/05/10 06:58:42;;;;;;;;;;;15.70;77.60;;;;;;5064520;28;19923;-70
2023/05/10 07:01:08;;;;;;;;;;;15.90;77.40;;;;;;5082318;28;19916;-69
2023/05/10 07:03:33;;;;;;;;;;;16.00;77.20;;;;;;5081541;28;19959;-70
2023/05/10 07:06:03;;;;;;;;;;;16.20;77.30;;;;;;5063155;28;19922;-69
2023/05/10 07:08:30;;;;;;;;;;;16.30;77.60;;;;;;5085177;28;19965;-69
2023/05/10 07:11:06;;;;;;;;;;;16.50;77.20;;;;;;5080300;28;20372;-70
2023/05/10 07:13:32;;;;;;;;;;;16.50;76.50;;;;;;5083913;28;20299;-70
2023/05/10 07:15:58;;;;;;;;;;;16.70;78.60;;;;;;5081946;28;19916;-69
2023/05/10 07:18:26;;;;;;;;;;;16.70;75.90;;;;;;5065960;28;21477;-70
2023/05/10 07:20:52;;;;;;;;;;;16.80;76.10;;;;;;5083914;28;19916;-70
2023/05/10 07:23:17;;;;;;;;;;;16.90;76.40;;;;;;5065065;28;19912;-70
2023/05/10 07:25:47;;;;;;;;;;;16.90;75.80;;;;;;5087954;28;19935;-70
2023/05/10 07:28:13;;;;;;;;;;;17.00;75.70;;;;;;5066563;28;20011;-69
2023/05/10 07:30:39;;;;;;;;;;;16.90;75.70;;;;;;5087679;28;20357;-69
2023/05/10 07:33:04;;;;;;;;;;;16.80;75.90;;;;;;5085698;28;19916;-69
2023/05/10 07:35:30;;;;;;;;;;;16.80;76.50;;;;;;5067160;28;20344;-69
2023/05/10 07:37:55;;;;;;;;;;;16.80;76.60;;;;;;5084985;28;19966;-68
2023/05/10 07:40:21;;;;;;;;;;;16.80;76.70;;;;;;5070265;28;19995;-68
2023/05/10 07:42:47;;;;;;;;;;;16.90;76.30;;;;;;5068859;28;20329;-69
2023/05/10 07:45:12;;;;;;;;;;;16.90;75.70;;;;;;5049644;28;19938;-69
2023/05/10 07:47:38;;;;;;;;;;;16.90;74.70;;;;;;5082498;28;19969;-68
2023/05/10 07:50:04;;;;;;;;;;;17.00;74.80;;;;;;5065009;28;19956;-68
2023/05/10 07:52:29;;;;;;;;;;;17.10;74.80;;;;;;5085518;28;19915;-70
2023/05/10 07:54:56;;;;;;;;;;;17.10;74.80;;;;;;5085359;28;20371;-69
2023/05/10 07:57:22;;;;;;;;;;;17.10;74.90;;;;;;5085984;28;19916;-69
2023/05/10 07:59:47;;;;;;;;;;;17.30;74.60;;;;;;5083264;28;19918;-69
2023/05/10 08:02:13;;;;;;;;;;;17.40;74.50;;;;;;5067204;28;19916;-69
2023/05/10 08:04:38;;;;;;;;;;;17.30;74.70;;;;;;5077200;28;19947;-70
2023/05/10 08:07:04;;;;;;;;;;;17.30;75.00;;;;;;5087920;28;19918;-69
2023/05/10 08:09:30;;;;;;;;;;;17.20;75.00;;;;;;5070124;28;19908;-69
2023/05/10 08:11:56;;;;;;;;;;;17.30;75.10;;;;;;5068606;28;19920;-68
2023/05/10 08:14:21;;;;;;;;;;;17.30;75.40;;;;;;5083423;28;20399;-68
2023/05/10 08:16:47;;;;;;;;;;;17.30;75.20;;;;;;5083656;28;20014;-69
2023/05/10 08:19:12;;;;;;;;;;;17.20;75.60;;;;;;5082957;28;19973;-68
2023/05/10 08:21:40;;;;;;;;;;;17.30;75.60;;;;;;5066691;28;19923;-69
2023/05/10 08:24:05;;;;;;;;;;;17.30;75.80;;;;;;5066943;28;19978;-69
2023/05/10 08:26:32;;;;;;;;;;;17.30;75.70;;;;;;5085217;28;20022;-69
2023/05/10 08:28:57;;;;;;;;;;;17.40;76.20;;;;;;5084270;28;19923;-70
2023/05/10 08:31:23;;;;;;;;;;;17.50;75.50;;;;;;5065631;28;19912;-70
2023/05/10 08:33:48;;;;;;;;;;;17.40;75.70;;;;;;5080859;28;19912;-69
2023/05/10 08:36:19;;;;;;;;;;;17.50;76.30;;;;;;5088444;28;20279;-68
2023/05/10 08:38:45;;;;;;;;;;;17.40;74.70;;;;;;5088067;28;19912;-71
2023/05/10 08:41:10;;;;;;;;;;;17.40;75.10;;;;;;5083984;28;20318;-69
2023/05/10 08:43:37;;;;;;;;;;;17.50;75.80;;;;;;5070347;28;19923;-69
2023/05/10 08:46:05;;;;;;;;;;;17.60;75.30;;;;;;5089009;28;20485;-69
2023/05/10 08:48:33;;;;;;;;;;;17.60;74.10;;;;;;5090192;28;19912;-69
2023/05/10 08:51:00;;;;;;;;;;;17.60;75.20;;;;;;5068550;28;20290;-69
2023/05/10 08:53:27;;;;;;;;;;;17.80;75.30;;;;;;5071555;28;20283;-68
2023/05/10 08:55:52;;;;;;;;;;;17.90;75.40;;;;;;5068311;28;19928;-70
2023/05/10 08:58:19;;;;;;;;;;;17.90;75.00;;;;;;5088705;28;19920;-69
2023/05/10 09:00:45;;;;;;;;;;;17.90;74.80;;;;;;5080985;28;19957;-68
2023/05/10 09:03:11;;;;;;;;;;;17.90;75.40;;;;;;5089376;28;19972;-69
2023/05/10 09:05:37;;;;;;;;;;;18.00;75.10;;;;;;5085731;28;19916;-68
2023/05/10 09:08:02;;;;;;;;;;;18.10;75.50;;;;;;5090073;28;19912;-69
2023/05/10 09:10:29;;;;;;;;;;;18.20;75.00;;;;;;5089636;28;20487;-69
2023/05/10 09:12:56;;;;;;;;;;;18.20;74.70;;;;;;5089315;28;19961;-70
2023/05/10 09:15:22;;;;;;;;;;;18.30;74.90;;;;;;5086503;28;19915;-70
2023/05/10 09:17:48;;;;;;;;;;;18.40;74.70;;;;;;5069379;28;19921;-68
2023/05/10 09:20:14;;;;;;;;;;;18.40;75.30;;;;;;5053464;28;19912;-71
2023/05/10 09:22:40;;;;;;;;;;;18.40;76.40;;;;;;5089155;28;20399;-68
2023/05/10 09:25:07;;;;;;;;;;;18.40;75.40;;;;;;5072813;28;19915;-68
2023/05/10 09:27:33;;;;;;;;;;;18.20;75.80;;;;;;5068814;28;20360;-69
2023/05/10 09:29:58;;;;;;;;;;;18.00;76.70;;;;;;5088261;28;19923;-69
2023/05/10 09:32:46;;;;;;;;;;;17.90;77.50;;;;;;5086493;28;19916;-68
2023/05/10 09:35:13;;;;;;;;;;;18.00;78.10;;;;;;5069955;28;19923;-69
2023/05/10 09:37:41;;;;;;;;;;;18.10;79.10;;;;;;5072724;28;19921;-69
2023/05/10 09:40:07;;;;;;;;;;;18.00;78.50;;;;;;5089789;28;19920;-68
2023/05/10 09:42:34;;;;;;;;;;;17.90;79.60;;;;;;5081995;28;19912;-69
2023/05/10 09:45:00;;;;;;;;;;;17.90;81.30;;;;;;5086881;28;19924;-70
2023/05/10 09:47:26;;;;;;;;;;;17.80;83.10;;;;;;5090019;28;20062;-70
2023/05/10 09:50:02;;;;;;;;;;;17.70;85.70;;;;;;5072588;28;19912;-70
2023/05/10 09:52:28;;;;;;;;;;;17.60;87.80;;;;;;5083716;28;19916;-69
2023/05/10 09:54:54;;;;;;;;;;;17.60;89.70;;;;;;5086353;28;19931;-71
2023/05/10 09:57:21;;;;;;;;;;;17.50;90.90;;;;;;5070756;28;19916;-69
2023/05/10 09:59:47;;;;;;;;;;;17.40;92.20;;;;;;5066813;28;19916;-70
2023/05/10 10:02:13;;;;;;;;;;;17.40;92.90;;;;;;5069547;28;19912;-70
2023/05/10 10:04:39;;;;;;;;;;;17.40;93.80;;;;;;5071747;28;20007;-69
2023/05/10 10:07:05;;;;;;;;;;;17.20;95.50;;;;;;5088962;28;20372;-71
2023/05/10 10:09:30;;;;;;;;;;;17.20;96.70;;;;;;5088724;28;19912;-70
2023/05/10 10:11:56;;;;;;;;;;;17.00;98.00;;;;;;5068222;28;19939;-69
2023/05/10 10:14:23;;;;;;;;;;;16.80;99.40;;;;;;5086255;28;19955;-70
2023/05/10 10:16:50;;;;;;;;;;;16.70;99.90;;;;;;5054130;28;20421;-69
2023/05/10 10:19:15;;;;;;;;;;;16.60;99.90;;;;;;5090680;28;19995;-70
2023/05/10 10:21:41;;;;;;;;;;;16.50;99.90;;;;;;5086703;28;20057;-71
2023/05/10 10:24:06;;;;;;;;;;;16.50;99.90;;;;;;5069074;28;19919;-72
2023/05/10 10:26:33;;;;;;;;;;;16.40;99.90;;;;;;5083294;28;19923;-70
2023/05/10 10:29:05;;;;;;;;;;;16.30;99.90;;;;;;5069804;28;20399;-70
2023/05/10 10:31:52;;;;;;;;;;;16.10;99.90;;;;;;5083432;28;19912;-70
2023/05/10 10:34:35;;;;;;;;;;;15.90;99.90;;;;;;5086800;28;20367;-69
2023/05/10 10:37:05;;;;;;;;;;;15.90;99.90;;;;;;5086283;28;19920;-69
2023/05/10 10:39:31;;;;;;;;;;;16.10;99.90;;;;;;5068107;28;20474;-70
2023/05/10 10:41:57;;;;;;;;;;;16.00;99.90;;;;;;5084606;28;19928;-70
2023/05/10 10:44:25;;;;;;;;;;;16.10;99.90;;;;;;5084824;28;19916;-70
2023/05/10 10:47:00;;;;;;;;;;;16.20;99.90;;;;;;5071801;28;19974;-69
2023/05/10 10:49:26;;;;;;;;;;;16.30;99.90;;;;;;5088132;28;19967;-69
2023/05/10 10:52:12;;;;;;;;;;;16.40;99.90;;;;;;5083697;28;20430;-70
2023/05/10 10:54:38;;;;;;;;;;;16.50;99.90;;;;;;5082504;28;19923;-69
2023/05/10 10:57:13;;;;;;;;;;;16.50;99.90;;;;;;5071174;28;19912;-69
2023/05/10 10:59:46;;;;;;;;;;;16.50;99.90;;;;;;5067011;28;19952;-70
2023/05/10 11:02:32;;;;;;;;;;;16.60;99.90;;;;;;5084942;28;20355;-70
2023/05/10 11:04:58;;;;;;;;;;;16.40;99.90;;;;;;5085504;28;19966;-70
2023/05/10 11:07:24;;;;;;;;;;;16.40;99.90;;;;;;5087215;28;19912;-68
2023/05/10 11:09:50;;;;;;;;;;;16.50;99.90;;;;;;5089538;28;20392;-68
2023/05/10 11:12:15;;;;;;;;;;;16.50;99.90;;;;;;5087820;28;20027;-69
2023/05/10 11:14:41;;;;;;;;;;;16.40;99.90;;;;;;5066439;28;19923;-69
2023/05/10 11:17:23;;;;;;;;;;;16.30;99.90;;;;;;5072066;28;19927;-69
2023/05/10 11:20:13;;;;;;;;;;;16.30;99.90;;;;;;5067867;28;19922;-69
2023/05/10 11:22:52;;;;;;;;;;;16.40;99.90;;;;;;5083087;28;19915;-69
2023/05/10 11:25:18;;;;;;;;;;;16.50;99.90;;;;;;5083507;28;19970;-70
2023/05/10 11:27:44;;;;;;;;;;;16.50;99.90;;;;;;5068806;28;19954;-70
2023/05/10 11:30:10;;;;;;;;;;;16.40;99.90;;;;;;5084123;28;19912;-71
2023/05/10 11:32:37;;;;;;;;;;;16.30;99.90;;;;;;5084702;28;19923;-69
2023/05/10 11:35:07;;;;;;;;;;;16.30;99.90;;;;;;5085360;28;20345;-68
2023/05/10 11:37:34;;;;;;;;;;;16.40;99.90;;;;;;5087504;28;19916;-69
2023/05/10 11:39:59;;;;;;;;;;;16.40;99.90;;;;;;5070959;28;19958;-69
2023/05/10 11:42:25;;;;;;;;;;;16.30;99.90;;;;;;5069517;28;19916;-69
2023/05/10 11:44:51;;;;;;;;;;;16.40;99.90;;;;;;5083998;28;19954;-69
2023/05/10 11:47:16;;;;;;;;;;;16.40;99.90;;;;;;5084347;28;19917;-69
2023/05/10 11:49:45;;;;;;;;;;;16.30;99.90;;;;;;5067910;28;20018;-70
2023/05/10 11:52:11;;;;;;;;;;;16.30;99.90;;;;;;5081790;28;19919;-69
2023/05/10 11:54:36;;;;;;;;;;;16.30;99.90;;;;;;5088148;28;19991;-69
2023/05/10 11:57:02;;;;;;;;;;;16.10;99.90;;;;;;5084633;28;19916;-70
2023/05/10 11:59:28;;;;;;;;;;;16.10;99.90;;;;;;5063989;28;19920;-71
2023/05/10 12:01:54;;;;;;;;;;;16.20;99.90;;;;;;5063083;28;19916;-69
2023/05/10 12:04:20;;;;;;;;;;;16.30;99.90;;;;;;5087825;28;20395;-70
2023/05/10 12:06:46;;;;;;;;;;;16.30;99.90;;;;;;5083659;28;19911;-70
2023/05/10 12:09:12;;;;;;;;;;;16.30;99.90;;;;;;5069213;28;20013;-69
2023/05/10 12:11:39;;;;;;;;;;;16.20;99.90;;;;;;5070063;28;19996;-69
2023/05/10 12:14:05;;;;;;;;;;;16.20;99.90;;;;;;5068894;28;19923;-70
2023/05/10 12:16:31;;;;;;;;;;;16.20;99.90;;;;;;5065022;28;19912;-70
2023/05/10 12:19:00;;;;;;;;;;;16.10;99.90;;;;;;5053146;28;19920;-69
2023/05/10 12:21:27;;;;;;;;;;;16.30;99.90;;;;;;5087151;28;20486;-67
2023/05/10 12:23:53;;;;;;;;;;;16.40;99.90;;;;;;5086299;28;20461;-69
2023/05/10 12:26:22;;;;;;;;;;;16.40;99.90;;;;;;5050155;28;19959;-70
2023/05/10 12:28:47;;;;;;;;;;;16.50;99.90;;;;;;5086686;28;19912;-70
2023/05/10 12:31:13;;;;;;;;;;;16.60;99.90;;;;;;5083848;28;20045;-69
2023/05/10 12:33:43;;;;;;;;;;;16.70;99.90;;;;;;5077836;28;19916;-69
2023/05/10 12:36:12;;;;;;;;;;;16.70;99.90;;;;;;5086051;28;20379;-70
2023/05/10 12:38:39;;;;;;;;;;;16.70;99.90;;;;;;5087986;28;20018;-71
2023/05/10 12:41:06;;;;;;;;;;;16.70;99.90;;;;;;5064379;28;20043;-69
2023/05/10 12:43:32;;;;;;;;;;;16.60;99.90;;;;;;5085227;28;20323;-69
2023/05/10 12:45:58;;;;;;;;;;;16.70;99.90;;;;;;5064700;28;19916;-70
2023/05/10 12:48:24;;;;;;;;;;;16.70;99.90;;;;;;5083273;28;19919;-70
2023/05/10 12:50:49;;;;;;;;;;;16.80;99.90;;;;;;5060589;28;19943;-69
2023/05/10 12:53:15;;;;;;;;;;;16.90;99.90;;;;;;5078296;28;19958;-70
2023/05/10 12:55:41;;;;;;;;;;;17.10;99.90;;;;;;5063964;28;19963;-71
2023/05/10 12:58:07;;;;;;;;;;;17.40;99.90;;;;;;5069988;28;19916;-69
2023/05/10 13:00:32;;;;;;;;;;;17.50;99.90;;;;;;5045025;28;19916;-70
2023/05/10 13:02:58;;;;;;;;;;;17.80;99.90;;;;;;5078037;28;20446;-68
2023/05/10 13:05:24;;;;;;;;;;;18.00;99.90;;;;;;5081964;28;19916;-69
2023/05/10 13:07:49;;;;;;;;;;;18.10;99.90;;;;;;5080593;28;19924;-69
2023/05/10 13:10:15;;;;;;;;;;;18.10;99.90;;;;;;5083485;28;19923;-71
2023/05/10 13:12:41;;;;;;;;;;;18.10;99.90;;;;;;5066475;28;20424;-69
2023/05/10 13:15:07;;;;;;;;;;;18.10;99.90;;;;;;5084359;28;19999;-69
2023/05/10 13:17:33;;;;;;;;;;;17.90;99.90;;;;;;5066234;28;19920;-69
2023/05/10 13:19:58;;;;;;;;;;;18.00;99.90;;;;;;5080656;28;20047;-70
2023/05/10 13:22:24;;;;;;;;;;;18.00;99.90;;;;;;5080138;28;19922;-69
2023/05/10 13:24:49;;;;;;;;;;;18.00;99.90;;;;;;5069775;28;20346;-69
2023/05/10 13:27:15;;;;;;;;;;;18.00;99.90;;;;;;5083282;28;19966;-69
2023/05/10 13:29:41;;;;;;;;;;;17.90;99.90;;;;;;5068470;28;19920;-70
2023/05/10 13:32:06;;;;;;;;;;;17.90;99.90;;;;;;5069405;28;19943;-68
2023/05/10 13:34:32;;;;;;;;;;;18.00;99.90;;;;;;5086489;28;19951;-68
2023/05/10 13:36:57;;;;;;;;;;;17.80;99.90;;;;;;5072202;28;19978;-68
2023/05/10 13:39:23;;;;;;;;;;;17.90;99.90;;;;;;5069638;28;19919;-68
2023/05/10 13:41:48;;;;;;;;;;;18.00;99.90;;;;;;5070002;28;19963;-69
2023/05/10 13:44:15;;;;;;;;;;;18.00;99.90;;;;;;5072458;28;19961;-68
2023/05/10 13:46:41;;;;;;;;;;;18.00;99.90;;;;;;5067319;28;19920;-69
2023/05/10 13:49:08;;;;;;;;;;;18.00;99.90;;;;;;5064455;28;20395;-69
2023/05/10 13:51:34;;;;;;;;;;;17.80;99.90;;;;;;5047606;28;20350;-68
2023/05/10 13:54:00;;;;;;;;;;;17.70;99.90;;;;;;5046813;28;19920;-68
2023/05/10 13:56:25;;;;;;;;;;;17.70;99.90;;;;;;5063061;28;19920;-69
2023/05/10 13:58:51;;;;;;;;;;;17.70;99.90;;;;;;5045371;28;19920;-69
2023/05/10 14:01:17;;;;;;;;;;;17.70;99.90;;;;;;5046955;28;19931;-69
2023/05/10 14:03:42;;;;;;;;;;;17.70;99.90;;;;;;5046641;28;20454;-69
2023/05/10 14:06:08;;;;;;;;;;;17.90;99.90;;;;;;5082438;28;19924;-69
2023/05/10 14:08:34;;;;;;;;;;;18.20;99.90;;;;;;5066780;28;20007;-69
2023/05/10 14:11:00;;;;;;;;;;;18.40;99.90;;;;;;5078585;28;19916;-71
2023/05/10 14:13:25;;;;;;;;;;;18.60;99.90;;;;;;5059224;28;19912;-70
2023/05/10 14:15:52;;;;;;;;;;;18.80;99.90;;;;;;5079434;28;19916;-69